Port Mcnicoll, Canada
Current Conditions -  °F | °C
As of 2:00 AM on Saturday 25 Oct 2014 (Local Time) from CYQA Reporting Station
Overcast Overcast  
Wind Chill: 41°   Ceiling: 1700
Heat Index: 41°   Visibility: 9mi
Dew Point: 41°   Wind: 2mph
Humidity: 100%   Direction: 150°SSE
Pressure: 29.84"   Gusts: NA
Location:  44.75°N, 79.82°W
Report Text: CYQA 250600Z AUTO 15002KT 9SM OVC017 05/05 A2984 RMK SLP112
Loading
Personal Weather Stations






























Interactive Weather Map
Tropical Storm Tracking
New forecast layout! Learn more

10-Day Weather Forecast

Advertisements
Track Severe Weather on mobile